sensor_id;sensor_type;location;lat;lon;timestamp;P1;durP1;ratioP1;P2;durP2;ratioP2
76548;SDS011;65391;52.068;4.542;2023-05-07T00:01:28;28.2;;;19.3;;
76548;SDS011;65391;52.068;4.542;2023-05-07T00:03:53;29.2;;;19.8;;
76548;SDS011;65391;52.068;4.542;2023-05-07T00:06:18;29.2;;;19.8;;
76548;SDS011;65391;52.068;4.542;2023-05-07T00:08:43;29.2;;;19.8;;
76548;SDS011;65391;52.068;4.542;2023-05-07T00:11:08;29.2;;;19.8;;
76548;SDS011;65391;52.068;4.542;2023-05-07T00:13:33;28.7;;;19.3;;
76548;SDS011;65391;52.068;4.542;2023-05-07T00:15:58;28.7;;;19.3;;
76548;SDS011;65391;52.068;4.542;2023-05-07T00:18:23;28.7;;;19.3;;
76548;SDS011;65391;52.068;4.542;2023-05-07T00:20:48;28.7;;;19.3;;
76548;SDS011;65391;52.068;4.542;2023-05-07T00:23:13;28.7;;;19.3;;
76548;SDS011;65391;52.068;4.542;2023-05-07T00:25:38;26.8;;;17.7;;
76548;SDS011;65391;52.068;4.542;2023-05-07T00:28:03;26.8;;;17.7;;
76548;SDS011;65391;52.068;4.542;2023-05-07T00:30:28;26.8;;;17.7;;
76548;SDS011;65391;52.068;4.542;2023-05-07T00:32:53;26.8;;;17.7;;
76548;SDS011;65391;52.068;4.542;2023-05-07T00:35:18;26.8;;;17.4;;
76548;SDS011;65391;52.068;4.542;2023-05-07T00:37:43;26.8;;;17.4;;
76548;SDS011;65391;52.068;4.542;2023-05-07T00:40:08;26.8;;;17.4;;
76548;SDS011;65391;52.068;4.542;2023-05-07T00:42:33;26.8;;;17.4;;
76548;SDS011;65391;52.068;4.542;2023-05-07T00:44:58;25.6;;;16.4;;
76548;SDS011;65391;52.068;4.542;2023-05-07T00:47:23;25.6;;;16.4;;
76548;SDS011;65391;52.068;4.542;2023-05-07T00:49:48;25.6;;;16.4;;
76548;SDS011;65391;52.068;4.542;2023-05-07T00:52:14;25.6;;;16.4;;
76548;SDS011;65391;52.068;4.542;2023-05-07T00:54:38;26.9;;;17.7;;
76548;SDS011;65391;52.068;4.542;2023-05-07T00:57:03;26.9;;;17.7;;
76548;SDS011;65391;52.068;4.542;2023-05-07T00:59:28;26.9;;;17.7;;
76548;SDS011;65391;52.068;4.542;2023-05-07T01:01:53;26.9;;;17.7;;
76548;SDS011;65391;52.068;4.542;2023-05-07T01:04:18;27.5;;;18.2;;
76548;SDS011;65391;52.068;4.542;2023-05-07T01:06:43;27.5;;;18.2;;
76548;SDS011;65391;52.068;4.542;2023-05-07T01:09:08;27.5;;;18.2;;
76548;SDS011;65391;52.068;4.542;2023-05-07T01:11:33;27.5;;;18.2;;
76548;SDS011;65391;52.068;4.542;2023-05-07T01:13:58;27.3;;;18.8;;
76548;SDS011;65391;52.068;4.542;2023-05-07T01:16:23;27.3;;;18.8;;
76548;SDS011;65391;52.068;4.542;2023-05-07T01:18:48;27.3;;;18.8;;
76548;SDS011;65391;52.068;4.542;2023-05-07T01:21:13;27.3;;;18.8;;
76548;SDS011;65391;52.068;4.542;2023-05-07T01:23:38;29.3;;;19.7;;
76548;SDS011;65391;52.068;4.542;2023-05-07T01:26:03;29.3;;;19.7;;
76548;SDS011;65391;52.068;4.542;2023-05-07T01:28:28;29.3;;;19.7;;
76548;SDS011;65391;52.068;4.542;2023-05-07T01:30:54;29.3;;;19.7;;
76548;SDS011;65391;52.068;4.542;2023-05-07T01:33:19;29.3;;;19.7;;
76548;SDS011;65391;52.068;4.542;2023-05-07T01:35:43;29.6;;;19.6;;
76548;SDS011;65391;52.068;4.542;2023-05-07T01:38:08;29.6;;;19.6;;
76548;SDS011;65391;52.068;4.542;2023-05-07T01:40:33;29.6;;;19.6;;
76548;SDS011;65391;52.068;4.542;2023-05-07T01:42:58;29.6;;;19.6;;
76548;SDS011;65391;52.068;4.542;2023-05-07T01:45:23;26.9;;;17.6;;
76548;SDS011;65391;52.068;4.542;2023-05-07T01:47:48;26.9;;;17.6;;
76548;SDS011;65391;52.068;4.542;2023-05-07T01:50:13;26.9;;;17.6;;
76548;SDS011;65391;52.068;4.542;2023-05-07T01:52:38;26.9;;;17.6;;
76548;SDS011;65391;52.068;4.542;2023-05-07T01:55:04;26.2;;;17.1;;
76548;SDS011;65391;52.068;4.542;2023-05-07T01:57:28;26.2;;;17.1;;
76548;SDS011;65391;52.068;4.542;2023-05-07T01:59:53;26.2;;;17.1;;
76548;SDS011;65391;52.068;4.542;2023-05-07T02:02:18;26.2;;;17.1;;
76548;SDS011;65391;52.068;4.542;2023-05-07T02:04:43;27;;;17.7;;
76548;SDS011;65391;52.068;4.542;2023-05-07T02:07:08;27;;;17.7;;
76548;SDS011;65391;52.068;4.542;2023-05-07T02:09:33;27;;;17.7;;
76548;SDS011;65391;52.068;4.542;2023-05-07T02:11:58;27;;;17.7;;
76548;SDS011;65391;52.068;4.542;2023-05-07T02:14:23;27.7;;;18.3;;
76548;SDS011;65391;52.068;4.542;2023-05-07T02:16:48;27.7;;;18.3;;
76548;SDS011;65391;52.068;4.542;2023-05-07T02:19:13;27.7;;;18.3;;
76548;SDS011;65391;52.068;4.542;2023-05-07T02:21:38;27.7;;;18.3;;
76548;SDS011;65391;52.068;4.542;2023-05-07T02:24:03;26.5;;;17.2;;
76548;SDS011;65391;52.068;4.542;2023-05-07T02:26:28;26.5;;;17.2;;
76548;SDS011;65391;52.068;4.542;2023-05-07T02:28:53;26.5;;;17.2;;
76548;SDS011;65391;52.068;4.542;2023-05-07T02:31:18;26.5;;;17.2;;
76548;SDS011;65391;52.068;4.542;2023-05-07T02:33:43;26.1;;;16.6;;
76548;SDS011;65391;52.068;4.542;2023-05-07T02:36:09;26.1;;;16.6;;
76548;SDS011;65391;52.068;4.542;2023-05-07T02:38:33;26.1;;;16.6;;
76548;SDS011;65391;52.068;4.542;2023-05-07T02:40:58;26.1;;;16.6;;
76548;SDS011;65391;52.068;4.542;2023-05-07T02:43:23;26.1;;;16.6;;
76548;SDS011;65391;52.068;4.542;2023-05-07T02:45:48;26.9;;;17.4;;
76548;SDS011;65391;52.068;4.542;2023-05-07T02:48:13;26.9;;;17.4;;
76548;SDS011;65391;52.068;4.542;2023-05-07T02:50:38;26.9;;;17.4;;
76548;SDS011;65391;52.068;4.542;2023-05-07T02:53:03;26.9;;;17.4;;
76548;SDS011;65391;52.068;4.542;2023-05-07T02:55:28;26.4;;;16.9;;
76548;SDS011;65391;52.068;4.542;2023-05-07T02:57:53;26.4;;;16.9;;
76548;SDS011;65391;52.068;4.542;2023-05-07T03:00:19;26.4;;;16.9;;
76548;SDS011;65391;52.068;4.542;2023-05-07T03:02:43;26.4;;;16.9;;
76548;SDS011;65391;52.068;4.542;2023-05-07T03:05:08;26.2;;;16.7;;
76548;SDS011;65391;52.068;4.542;2023-05-07T03:07:34;26.2;;;16.7;;
76548;SDS011;65391;52.068;4.542;2023-05-07T03:09:58;26.2;;;16.7;;
76548;SDS011;65391;52.068;4.542;2023-05-07T03:12:23;26.2;;;16.7;;
76548;SDS011;65391;52.068;4.542;2023-05-07T03:14:48;26.2;;;16.8;;
76548;SDS011;65391;52.068;4.542;2023-05-07T03:17:13;26.2;;;16.8;;
76548;SDS011;65391;52.068;4.542;2023-05-07T03:19:38;26.2;;;16.8;;
76548;SDS011;65391;52.068;4.542;2023-05-07T03:22:03;26.2;;;16.8;;
76548;SDS011;65391;52.068;4.542;2023-05-07T03:24:28;24.1;;;14.9;;
76548;SDS011;65391;52.068;4.542;2023-05-07T03:26:53;24.1;;;14.9;;
76548;SDS011;65391;52.068;4.542;2023-05-07T03:29:18;24.1;;;14.9;;
76548;SDS011;65391;52.068;4.542;2023-05-07T03:31:43;24.1;;;14.9;;
76548;SDS011;65391;52.068;4.542;2023-05-07T03:34:09;21.9;;;14;;
76548;SDS011;65391;52.068;4.542;2023-05-07T03:36:33;21.9;;;14;;
76548;SDS011;65391;52.068;4.542;2023-05-07T03:38:58;21.9;;;14;;
76548;SDS011;65391;52.068;4.542;2023-05-07T03:41:23;21.9;;;14;;
76548;SDS011;65391;52.068;4.542;2023-05-07T03:43:48;22.9;;;14.1;;
76548;SDS011;65391;52.068;4.542;2023-05-07T03:46:13;22.9;;;14.1;;
76548;SDS011;65391;52.068;4.542;2023-05-07T03:48:38;22.9;;;14.1;;
76548;SDS011;65391;52.068;4.542;2023-05-07T03:51:03;22.9;;;14.1;;
76548;SDS011;65391;52.068;4.542;2023-05-07T03:53:28;22.9;;;14.1;;
76548;SDS011;65391;52.068;4.542;2023-05-07T03:55:53;22.7;;;14;;
76548;SDS011;65391;52.068;4.542;2023-05-07T03:58:18;22.7;;;14;;
76548;SDS011;65391;52.068;4.542;2023-05-07T04:00:43;22.7;;;14;;
76548;SDS011;65391;52.068;4.542;2023-05-07T04:03:08;22.7;;;14;;
76548;SDS011;65391;52.068;4.542;2023-05-07T04:05:33;21;;;12.6;;
76548;SDS011;65391;52.068;4.542;2023-05-07T04:07:58;21;;;12.6;;
76548;SDS011;65391;52.068;4.542;2023-05-07T04:10:23;21;;;12.6;;
76548;SDS011;65391;52.068;4.542;2023-05-07T04:12:48;21;;;12.6;;
76548;SDS011;65391;52.068;4.542;2023-05-07T04:15:13;17.7;;;12.2;;
76548;SDS011;65391;52.068;4.542;2023-05-07T04:17:38;17.7;;;12.2;;
76548;SDS011;65391;52.068;4.542;2023-05-07T04:20:04;17.7;;;12.2;;
76548;SDS011;65391;52.068;4.542;2023-05-07T04:22:28;17.7;;;12.2;;
76548;SDS011;65391;52.068;4.542;2023-05-07T04:24:53;18.2;;;11.4;;
76548;SDS011;65391;52.068;4.542;2023-05-07T04:27:18;18.2;;;11.4;;
76548;SDS011;65391;52.068;4.542;2023-05-07T04:29:43;18.2;;;11.4;;
76548;SDS011;65391;52.068;4.542;2023-05-07T04:32:08;18.2;;;11.4;;
76548;SDS011;65391;52.068;4.542;2023-05-07T04:34:33;17.9;;;11.5;;
76548;SDS011;65391;52.068;4.542;2023-05-07T04:36:58;17.9;;;11.5;;
76548;SDS011;65391;52.068;4.542;2023-05-07T04:39:23;17.9;;;11.5;;
76548;SDS011;65391;52.068;4.542;2023-05-07T04:41:49;17.9;;;11.5;;
76548;SDS011;65391;52.068;4.542;2023-05-07T04:44:13;16.3;;;11.1;;
76548;SDS011;65391;52.068;4.542;2023-05-07T04:46:38;16.3;;;11.1;;
76548;SDS011;65391;52.068;4.542;2023-05-07T04:49:04;16.3;;;11.1;;
76548;SDS011;65391;52.068;4.542;2023-05-07T04:51:28;16.3;;;11.1;;
76548;SDS011;65391;52.068;4.542;2023-05-07T04:53:53;15.4;;;10.6;;
76548;SDS011;65391;52.068;4.542;2023-05-07T04:56:18;15.4;;;10.6;;
76548;SDS011;65391;52.068;4.542;2023-05-07T04:58:43;15.4;;;10.6;;
76548;SDS011;65391;52.068;4.542;2023-05-07T05:01:08;15.4;;;10.6;;
76548;SDS011;65391;52.068;4.542;2023-05-07T05:03:33;15.4;;;10.6;;
76548;SDS011;65391;52.068;4.542;2023-05-07T05:05:58;15.9;;;11.2;;
76548;SDS011;65391;52.068;4.542;2023-05-07T05:08:23;15.9;;;11.2;;
76548;SDS011;65391;52.068;4.542;2023-05-07T05:10:48;15.9;;;11.2;;
76548;SDS011;65391;52.068;4.542;2023-05-07T05:13:13;15.9;;;11.2;;
76548;SDS011;65391;52.068;4.542;2023-05-07T05:15:38;15.8;;;10.4;;
76548;SDS011;65391;52.068;4.542;2023-05-07T05:18:03;15.8;;;10.4;;
76548;SDS011;65391;52.068;4.542;2023-05-07T05:20:28;15.8;;;10.4;;
76548;SDS011;65391;52.068;4.542;2023-05-07T05:22:53;15.8;;;10.4;;
76548;SDS011;65391;52.068;4.542;2023-05-07T05:25:18;17.3;;;10.2;;
76548;SDS011;65391;52.068;4.542;2023-05-07T05:27:43;17.3;;;10.2;;
76548;SDS011;65391;52.068;4.542;2023-05-07T05:30:09;17.3;;;10.2;;
76548;SDS011;65391;52.068;4.542;2023-05-07T05:32:33;17.3;;;10.2;;
76548;SDS011;65391;52.068;4.542;2023-05-07T05:34:58;17;;;10.7;;
76548;SDS011;65391;52.068;4.542;2023-05-07T05:37:24;17;;;10.7;;
76548;SDS011;65391;52.068;4.542;2023-05-07T05:39:48;17;;;10.7;;
76548;SDS011;65391;52.068;4.542;2023-05-07T05:42:13;17;;;10.7;;
76548;SDS011;65391;52.068;4.542;2023-05-07T05:44:39;18.7;;;10.9;;
76548;SDS011;65391;52.068;4.542;2023-05-07T05:47:03;18.7;;;10.9;;
76548;SDS011;65391;52.068;4.542;2023-05-07T05:49:28;18.7;;;10.9;;
76548;SDS011;65391;52.068;4.542;2023-05-07T05:51:53;18.7;;;10.9;;
76548;SDS011;65391;52.068;4.542;2023-05-07T05:54:18;17;;;11;;
76548;SDS011;65391;52.068;4.542;2023-05-07T05:56:43;17;;;11;;
76548;SDS011;65391;52.068;4.542;2023-05-07T05:59:08;17;;;11;;
76548;SDS011;65391;52.068;4.542;2023-05-07T06:01:33;17;;;11;;
76548;SDS011;65391;52.068;4.542;2023-05-07T06:03:58;17.5;;;11.5;;
76548;SDS011;65391;52.068;4.542;2023-05-07T06:06:23;17.5;;;11.5;;
76548;SDS011;65391;52.068;4.542;2023-05-07T06:08:48;17.5;;;11.5;;
76548;SDS011;65391;52.068;4.542;2023-05-07T06:11:13;17.5;;;11.5;;
76548;SDS011;65391;52.068;4.542;2023-05-07T06:13:38;17.5;;;11.5;;
76548;SDS011;65391;52.068;4.542;2023-05-07T06:16:04;22.1;;;12.5;;
76548;SDS011;65391;52.068;4.542;2023-05-07T06:18:28;22.1;;;12.5;;
76548;SDS011;65391;52.068;4.542;2023-05-07T06:20:53;22.1;;;12.5;;
76548;SDS011;65391;52.068;4.542;2023-05-07T06:23:18;22.1;;;12.5;;
76548;SDS011;65391;52.068;4.542;2023-05-07T06:25:47;22.3;;;13.9;;
76548;SDS011;65391;52.068;4.542;2023-05-07T06:28:08;22.3;;;13.9;;
76548;SDS011;65391;52.068;4.542;2023-05-07T06:30:33;22.3;;;13.9;;
76548;SDS011;65391;52.068;4.542;2023-05-07T06:32:58;22.3;;;13.9;;
76548;SDS011;65391;52.068;4.542;2023-05-07T06:35:23;23.6;;;15.3;;
76548;SDS011;65391;52.068;4.542;2023-05-07T06:37:48;23.6;;;15.3;;
76548;SDS011;65391;52.068;4.542;2023-05-07T06:40:13;23.6;;;15.3;;
76548;SDS011;65391;52.068;4.542;2023-05-07T06:42:38;23.6;;;15.3;;
76548;SDS011;65391;52.068;4.542;2023-05-07T06:45:04;22.8;;;14.4;;
76548;SDS011;65391;52.068;4.542;2023-05-07T06:47:29;22.8;;;14.4;;
76548;SDS011;65391;52.068;4.542;2023-05-07T06:49:54;22.8;;;14.4;;
76548;SDS011;65391;52.068;4.542;2023-05-07T06:52:19;22.8;;;14.4;;
76548;SDS011;65391;52.068;4.542;2023-05-07T06:54:44;22.2;;;14.6;;
76548;SDS011;65391;52.068;4.542;2023-05-07T06:57:09;22.2;;;14.6;;
76548;SDS011;65391;52.068;4.542;2023-05-07T06:59:34;22.2;;;14.6;;
76548;SDS011;65391;52.068;4.542;2023-05-07T07:01:59;22.2;;;14.6;;
76548;SDS011;65391;52.068;4.542;2023-05-07T07:04:24;22.4;;;14.6;;
76548;SDS011;65391;52.068;4.542;2023-05-07T07:06:49;22.4;;;14.6;;
76548;SDS011;65391;52.068;4.542;2023-05-07T07:09:14;22.4;;;14.6;;
76548;SDS011;65391;52.068;4.542;2023-05-07T07:11:39;22.4;;;14.6;;
76548;SDS011;65391;52.068;4.542;2023-05-07T07:14:04;22.4;;;14.6;;
76548;SDS011;65391;52.068;4.542;2023-05-07T07:16:29;17.4;;;13.6;;
76548;SDS011;65391;52.068;4.542;2023-05-07T07:18:54;17.4;;;13.6;;
76548;SDS011;65391;52.068;4.542;2023-05-07T07:21:19;17.4;;;13.6;;
76548;SDS011;65391;52.068;4.542;2023-05-07T07:23:44;17.4;;;13.6;;
76548;SDS011;65391;52.068;4.542;2023-05-07T07:26:09;20.8;;;13.4;;
76548;SDS011;65391;52.068;4.542;2023-05-07T07:28:34;20.8;;;13.4;;
76548;SDS011;65391;52.068;4.542;2023-05-07T07:30:59;20.8;;;13.4;;
76548;SDS011;65391;52.068;4.542;2023-05-07T07:33:24;20.8;;;13.4;;
76548;SDS011;65391;52.068;4.542;2023-05-07T07:35:49;18.2;;;12;;
76548;SDS011;65391;52.068;4.542;2023-05-07T07:38:14;18.2;;;12;;
76548;SDS011;65391;52.068;4.542;2023-05-07T07:40:39;18.2;;;12;;
76548;SDS011;65391;52.068;4.542;2023-05-07T07:43:04;18.2;;;12;;
76548;SDS011;65391;52.068;4.542;2023-05-07T07:45:29;16.6;;;11.5;;
76548;SDS011;65391;52.068;4.542;2023-05-07T07:47:54;16.6;;;11.5;;
76548;SDS011;65391;52.068;4.542;2023-05-07T07:50:19;16.6;;;11.5;;
76548;SDS011;65391;52.068;4.542;2023-05-07T07:52:44;16.6;;;11.5;;
76548;SDS011;65391;52.068;4.542;2023-05-07T07:55:09;16.2;;;11.8;;
76548;SDS011;65391;52.068;4.542;2023-05-07T07:57:34;16.2;;;11.8;;
76548;SDS011;65391;52.068;4.542;2023-05-07T07:59:59;16.2;;;11.8;;
76548;SDS011;65391;52.068;4.542;2023-05-07T08:02:24;16.2;;;11.8;;
76548;SDS011;65391;52.068;4.542;2023-05-07T08:04:49;14.8;;;10.7;;
76548;SDS011;65391;52.068;4.542;2023-05-07T08:07:14;14.8;;;10.7;;
76548;SDS011;65391;52.068;4.542;2023-05-07T08:09:39;14.8;;;10.7;;
76548;SDS011;65391;52.068;4.542;2023-05-07T08:12:04;14.8;;;10.7;;
76548;SDS011;65391;52.068;4.542;2023-05-07T08:14:29;12.3;;;8.6;;
76548;SDS011;65391;52.068;4.542;2023-05-07T08:16:54;12.3;;;8.6;;
76548;SDS011;65391;52.068;4.542;2023-05-07T08:19:19;12.3;;;8.6;;
76548;SDS011;65391;52.068;4.542;2023-05-07T08:21:44;12.3;;;8.6;;
76548;SDS011;65391;52.068;4.542;2023-05-07T08:24:09;12.3;;;8.6;;
76548;SDS011;65391;52.068;4.542;2023-05-07T08:26:34;10.3;;;8.5;;
76548;SDS011;65391;52.068;4.542;2023-05-07T08:28:59;10.3;;;8.5;;
76548;SDS011;65391;52.068;4.542;2023-05-07T08:31:24;10.3;;;8.5;;
76548;SDS011;65391;52.068;4.542;2023-05-07T08:33:49;10.3;;;8.5;;
76548;SDS011;65391;52.068;4.542;2023-05-07T08:36:14;12.4;;;8.4;;
76548;SDS011;65391;52.068;4.542;2023-05-07T08:38:39;12.4;;;8.4;;
76548;SDS011;65391;52.068;4.542;2023-05-07T08:41:04;12.4;;;8.4;;
76548;SDS011;65391;52.068;4.542;2023-05-07T08:43:29;12.4;;;8.4;;
76548;SDS011;65391;52.068;4.542;2023-05-07T08:45:54;9.1;;;6.4;;
76548;SDS011;65391;52.068;4.542;2023-05-07T08:48:19;9.1;;;6.4;;
76548;SDS011;65391;52.068;4.542;2023-05-07T08:50:44;9.1;;;6.4;;
76548;SDS011;65391;52.068;4.542;2023-05-07T08:53:09;9.1;;;6.4;;
76548;SDS011;65391;52.068;4.542;2023-05-07T08:55:34;12.1;;;7.4;;
76548;SDS011;65391;52.068;4.542;2023-05-07T08:57:59;12.1;;;7.4;;
76548;SDS011;65391;52.068;4.542;2023-05-07T09:00:24;12.1;;;7.4;;
76548;SDS011;65391;52.068;4.542;2023-05-07T09:02:49;12.1;;;7.4;;
76548;SDS011;65391;52.068;4.542;2023-05-07T09:05:14;9.2;;;7.9;;
76548;SDS011;65391;52.068;4.542;2023-05-07T09:07:39;9.2;;;7.9;;
76548;SDS011;65391;52.068;4.542;2023-05-07T09:10:05;9.2;;;7.9;;
76548;SDS011;65391;52.068;4.542;2023-05-07T09:12:29;9.2;;;7.9;;
76548;SDS011;65391;52.068;4.542;2023-05-07T09:14:54;14.2;;;9.3;;
76548;SDS011;65391;52.068;4.542;2023-05-07T09:17:19;14.2;;;9.3;;
76548;SDS011;65391;52.068;4.542;2023-05-07T09:19:44;14.2;;;9.3;;
76548;SDS011;65391;52.068;4.542;2023-05-07T09:22:09;14.2;;;9.3;;
76548;SDS011;65391;52.068;4.542;2023-05-07T09:24:34;12.8;;;10;;
76548;SDS011;65391;52.068;4.542;2023-05-07T09:26:59;12.8;;;10;;
76548;SDS011;65391;52.068;4.542;2023-05-07T09:29:24;12.8;;;10;;
76548;SDS011;65391;52.068;4.542;2023-05-07T09:31:49;12.8;;;10;;
76548;SDS011;65391;52.068;4.542;2023-05-07T09:34:14;12.8;;;10;;
76548;SDS011;65391;52.068;4.542;2023-05-07T09:36:39;9.1;;;6.9;;
76548;SDS011;65391;52.068;4.542;2023-05-07T09:39:04;9.1;;;6.9;;
76548;SDS011;65391;52.068;4.542;2023-05-07T09:41:30;9.1;;;6.9;;
76548;SDS011;65391;52.068;4.542;2023-05-07T09:43:54;9.1;;;6.9;;
76548;SDS011;65391;52.068;4.542;2023-05-07T09:46:19;8.5;;;6.2;;
76548;SDS011;65391;52.068;4.542;2023-05-07T09:48:44;8.5;;;6.2;;
76548;SDS011;65391;52.068;4.542;2023-05-07T09:51:15;8.5;;;6.2;;
76548;SDS011;65391;52.068;4.542;2023-05-07T09:53:34;8.5;;;6.2;;
76548;SDS011;65391;52.068;4.542;2023-05-07T09:55:59;10.7;;;7.6;;
76548;SDS011;65391;52.068;4.542;2023-05-07T09:58:24;10.7;;;7.6;;
76548;SDS011;65391;52.068;4.542;2023-05-07T10:00:49;10.7;;;7.6;;
76548;SDS011;65391;52.068;4.542;2023-05-07T10:03:14;10.7;;;7.6;;
76548;SDS011;65391;52.068;4.542;2023-05-07T10:05:39;11.4;;;8.4;;
76548;SDS011;65391;52.068;4.542;2023-05-07T10:08:04;11.4;;;8.4;;
76548;SDS011;65391;52.068;4.542;2023-05-07T10:10:29;11.4;;;8.4;;
76548;SDS011;65391;52.068;4.542;2023-05-07T10:12:54;11.4;;;8.4;;
76548;SDS011;65391;52.068;4.542;2023-05-07T10:15:19;8.9;;;7.3;;
76548;SDS011;65391;52.068;4.542;2023-05-07T10:17:44;8.9;;;7.3;;
76548;SDS011;65391;52.068;4.542;2023-05-07T10:20:09;8.9;;;7.3;;
76548;SDS011;65391;52.068;4.542;2023-05-07T10:22:37;8.9;;;7.3;;
76548;SDS011;65391;52.068;4.542;2023-05-07T10:24:59;9.8;;;6.4;;
76548;SDS011;65391;52.068;4.542;2023-05-07T10:27:24;9.8;;;6.4;;
76548;SDS011;65391;52.068;4.542;2023-05-07T10:29:52;9.8;;;6.4;;
76548;SDS011;65391;52.068;4.542;2023-05-07T10:32:25;9.8;;;6.4;;
76548;SDS011;65391;52.068;4.542;2023-05-07T10:34:41;7.7;;;6.1;;
76548;SDS011;65391;52.068;4.542;2023-05-07T10:37:04;7.7;;;6.1;;
76548;SDS011;65391;52.068;4.542;2023-05-07T10:39:29;7.7;;;6.1;;
76548;SDS011;65391;52.068;4.542;2023-05-07T10:41:54;7.7;;;6.1;;
76548;SDS011;65391;52.068;4.542;2023-05-07T10:44:27;7.7;;;6.1;;
76548;SDS011;65391;52.068;4.542;2023-05-07T10:47:06;9.1;;;5.6;;
76548;SDS011;65391;52.068;4.542;2023-05-07T10:49:09;9.1;;;5.6;;
76548;SDS011;65391;52.068;4.542;2023-05-07T10:51:34;9.1;;;5.6;;
76548;SDS011;65391;52.068;4.542;2023-05-07T10:54:30;9.1;;;5.6;;
76548;SDS011;65391;52.068;4.542;2023-05-07T10:56:25;9.2;;;6.2;;
76548;SDS011;65391;52.068;4.542;2023-05-07T10:58:49;9.2;;;6.2;;
76548;SDS011;65391;52.068;4.542;2023-05-07T11:01:14;9.2;;;6.2;;
76548;SDS011;65391;52.068;4.542;2023-05-07T11:04:12;9.2;;;6.2;;
76548;SDS011;65391;52.068;4.542;2023-05-07T11:06:12;8.3;;;5;;
76548;SDS011;65391;52.068;4.542;2023-05-07T11:08:52;8.3;;;5;;
76548;SDS011;65391;52.068;4.542;2023-05-07T11:10:55;8.3;;;5;;
76548;SDS011;65391;52.068;4.542;2023-05-07T11:13:41;8.3;;;5;;
76548;SDS011;65391;52.068;4.542;2023-05-07T11:15:45;7.5;;;5.4;;
76548;SDS011;65391;52.068;4.542;2023-05-07T11:18:10;7.5;;;5.4;;
76548;SDS011;65391;52.068;4.542;2023-05-07T11:20:52;7.5;;;5.4;;
76548;SDS011;65391;52.068;4.542;2023-05-07T11:22:59;7.5;;;5.4;;
76548;SDS011;65391;52.068;4.542;2023-05-07T11:25:24;9.8;;;5.1;;
76548;SDS011;65391;52.068;4.542;2023-05-07T11:27:49;9.8;;;5.1;;
76548;SDS011;65391;52.068;4.542;2023-05-07T11:30:16;9.8;;;5.1;;
76548;SDS011;65391;52.068;4.542;2023-05-07T11:32:39;9.8;;;5.1;;
76548;SDS011;65391;52.068;4.542;2023-05-07T11:35:05;7.5;;;4.8;;
76548;SDS011;65391;52.068;4.542;2023-05-07T11:37:29;7.5;;;4.8;;
76548;SDS011;65391;52.068;4.542;2023-05-07T11:40:02;7.5;;;4.8;;
76548;SDS011;65391;52.068;4.542;2023-05-07T11:42:27;7.5;;;4.8;;
76548;SDS011;65391;52.068;4.542;2023-05-07T11:44:44;7.4;;;6;;
76548;SDS011;65391;52.068;4.542;2023-05-07T11:47:10;7.4;;;6;;
76548;SDS011;65391;52.068;4.542;2023-05-07T11:49:34;7.4;;;6;;
76548;SDS011;65391;52.068;4.542;2023-05-07T11:51:59;7.4;;;6;;
76548;SDS011;65391;52.068;4.542;2023-05-07T11:54:24;7.4;;;6;;
76548;SDS011;65391;52.068;4.542;2023-05-07T11:56:49;10.5;;;6.5;;
76548;SDS011;65391;52.068;4.542;2023-05-07T11:59:17;10.5;;;6.5;;
76548;SDS011;65391;52.068;4.542;2023-05-07T12:01:39;10.5;;;6.5;;
76548;SDS011;65391;52.068;4.542;2023-05-07T12:04:04;10.5;;;6.5;;
76548;SDS011;65391;52.068;4.542;2023-05-07T12:06:29;9.6;;;6.9;;
76548;SDS011;65391;52.068;4.542;2023-05-07T12:08:54;9.6;;;6.9;;
76548;SDS011;65391;52.068;4.542;2023-05-07T12:11:22;9.6;;;6.9;;
76548;SDS011;65391;52.068;4.542;2023-05-07T12:13:45;9.6;;;6.9;;
76548;SDS011;65391;52.068;4.542;2023-05-07T12:16:09;9.7;;;7.5;;
76548;SDS011;65391;52.068;4.542;2023-05-07T12:18:35;9.7;;;7.5;;
76548;SDS011;65391;52.068;4.542;2023-05-07T12:20:59;9.7;;;7.5;;
76548;SDS011;65391;52.068;4.542;2023-05-07T12:23:25;9.7;;;7.5;;
76548;SDS011;65391;52.068;4.542;2023-05-07T12:25:49;13.8;;;8;;
76548;SDS011;65391;52.068;4.542;2023-05-07T12:28:14;13.8;;;8;;
76548;SDS011;65391;52.068;4.542;2023-05-07T12:30:39;13.8;;;8;;
76548;SDS011;65391;52.068;4.542;2023-05-07T12:33:04;13.8;;;8;;
76548;SDS011;65391;52.068;4.542;2023-05-07T12:35:30;11.5;;;7.8;;
76548;SDS011;65391;52.068;4.542;2023-05-07T12:37:55;11.5;;;7.8;;
76548;SDS011;65391;52.068;4.542;2023-05-07T12:40:19;11.5;;;7.8;;
76548;SDS011;65391;52.068;4.542;2023-05-07T12:42:44;11.5;;;7.8;;
76548;SDS011;65391;52.068;4.542;2023-05-07T12:45:10;9.5;;;6.4;;
76548;SDS011;65391;52.068;4.542;2023-05-07T12:47:34;9.5;;;6.4;;
76548;SDS011;65391;52.068;4.542;2023-05-07T12:49:59;9.5;;;6.4;;
76548;SDS011;65391;52.068;4.542;2023-05-07T12:52:25;9.5;;;6.4;;
76548;SDS011;65391;52.068;4.542;2023-05-07T12:54:50;15.9;;;10.6;;
76548;SDS011;65391;52.068;4.542;2023-05-07T12:57:14;15.9;;;10.6;;
76548;SDS011;65391;52.068;4.542;2023-05-07T12:59:40;15.9;;;10.6;;
76548;SDS011;65391;52.068;4.542;2023-05-07T13:02:05;15.9;;;10.6;;
76548;SDS011;65391;52.068;4.542;2023-05-07T13:04:29;15.9;;;10.6;;
76548;SDS011;65391;52.068;4.542;2023-05-07T13:06:54;20.7;;;13.2;;
76548;SDS011;65391;52.068;4.542;2023-05-07T13:09:19;20.7;;;13.2;;
76548;SDS011;65391;52.068;4.542;2023-05-07T13:11:44;20.7;;;13.2;;
76548;SDS011;65391;52.068;4.542;2023-05-07T13:14:09;20.7;;;13.2;;
76548;SDS011;65391;52.068;4.542;2023-05-07T13:16:34;21;;;14.6;;
76548;SDS011;65391;52.068;4.542;2023-05-07T13:18:59;21;;;14.6;;
76548;SDS011;65391;52.068;4.542;2023-05-07T13:21:24;21;;;14.6;;
76548;SDS011;65391;52.068;4.542;2023-05-07T13:23:49;21;;;14.6;;
76548;SDS011;65391;52.068;4.542;2023-05-07T13:26:14;25.6;;;14.5;;
76548;SDS011;65391;52.068;4.542;2023-05-07T13:28:39;25.6;;;14.5;;
76548;SDS011;65391;52.068;4.542;2023-05-07T13:31:04;25.6;;;14.5;;
76548;SDS011;65391;52.068;4.542;2023-05-07T13:33:29;25.6;;;14.5;;
76548;SDS011;65391;52.068;4.542;2023-05-07T13:35:54;19.8;;;13.1;;
76548;SDS011;65391;52.068;4.542;2023-05-07T13:38:19;19.8;;;13.1;;
76548;SDS011;65391;52.068;4.542;2023-05-07T13:40:44;19.8;;;13.1;;
76548;SDS011;65391;52.068;4.542;2023-05-07T13:43:09;19.8;;;13.1;;
76548;SDS011;65391;52.068;4.542;2023-05-07T13:45:34;26.5;;;16.5;;
76548;SDS011;65391;52.068;4.542;2023-05-07T13:47:59;26.5;;;16.5;;
76548;SDS011;65391;52.068;4.542;2023-05-07T13:50:25;26.5;;;16.5;;
76548;SDS011;65391;52.068;4.542;2023-05-07T13:52:49;26.5;;;16.5;;
76548;SDS011;65391;52.068;4.542;2023-05-07T13:55:15;27.6;;;17;;
76548;SDS011;65391;52.068;4.542;2023-05-07T13:57:39;27.6;;;17;;
76548;SDS011;65391;52.068;4.542;2023-05-07T14:00:06;27.6;;;17;;
76548;SDS011;65391;52.068;4.542;2023-05-07T14:02:29;27.6;;;17;;
76548;SDS011;65391;52.068;4.542;2023-05-07T14:04:54;25.8;;;15.5;;
76548;SDS011;65391;52.068;4.542;2023-05-07T14:07:19;25.8;;;15.5;;
76548;SDS011;65391;52.068;4.542;2023-05-07T14:09:45;25.8;;;15.5;;
76548;SDS011;65391;52.068;4.542;2023-05-07T14:12:09;25.8;;;15.5;;
76548;SDS011;65391;52.068;4.542;2023-05-07T14:14:34;25.8;;;15.5;;
76548;SDS011;65391;52.068;4.542;2023-05-07T14:16:59;25.9;;;15.5;;
76548;SDS011;65391;52.068;4.542;2023-05-07T14:19:25;25.9;;;15.5;;
76548;SDS011;65391;52.068;4.542;2023-05-07T14:21:50;25.9;;;15.5;;
76548;SDS011;65391;52.068;4.542;2023-05-07T14:24:14;25.9;;;15.5;;
76548;SDS011;65391;52.068;4.542;2023-05-07T14:26:40;25.2;;;14.9;;
76548;SDS011;65391;52.068;4.542;2023-05-07T14:29:05;25.2;;;14.9;;
76548;SDS011;65391;52.068;4.542;2023-05-07T14:31:30;25.2;;;14.9;;
76548;SDS011;65391;52.068;4.542;2023-05-07T14:33:55;25.2;;;14.9;;
76548;SDS011;65391;52.068;4.542;2023-05-07T14:36:20;22.4;;;14.8;;
76548;SDS011;65391;52.068;4.542;2023-05-07T14:38:45;22.4;;;14.8;;
76548;SDS011;65391;52.068;4.542;2023-05-07T14:41:10;22.4;;;14.8;;
76548;SDS011;65391;52.068;4.542;2023-05-07T14:43:35;22.4;;;14.8;;